This is the latest recevied weather packets stored in our database for station/object KB9HUO. If no packets are shown the sender has not sent any weather packets the latest 10 day(s).
| Time | Temp. | Humidity | Pressure | Rain* | Wind** | Luminosity | Snow |
|---|---|---|---|---|---|---|---|
| 1777402590 | 23.33° C | 60% | 1015.7 hPa | 0 mm | - | 749 W/m² | - |
| 1777402289 | 23.33° C | 59% | 1015.6 hPa | 0 mm | - | 748 W/m² | - |
| 1777401988 | 22.78° C | 63% | 1015.5 hPa | 0 mm | - | 654 W/m² | - |
| 1777401686 | 22.78° C | 61% | 1015.5 hPa | 0 mm | - | 765 W/m² | - |
| 1777401384 | 22.78° C | 62% | 1015.5 hPa | 0 mm | - | 440 W/m² | - |
| 1777401080 | 22.22° C | 67% | 1015.5 hPa | 0 mm | - | 376 W/m² | - |
| 1777400775 | 22.78° C | 62% | 1015.5 hPa | 0 mm | - | 287 W/m² | - |
| 1777400472 | 22.78° C | 67% | 1015.6 hPa | 0 mm | - | 210 W/m² | - |
| 1777400168 | 22.78° C | 64% | 1015.7 hPa | 0 mm | - | 807 W/m² | - |
| 1777399865 | 22.78° C | 63% | 1015.9 hPa | 0 mm | - | 809 W/m² | - |
| 1777399562 | 22.78° C | 62% | 1015.9 hPa | 0 mm | - | 820 W/m² | - |
| 1777399259 | 22.22° C | 62% | 1015.8 hPa | 0 mm | - | 811 W/m² | - |
| 1777398957 | 22.22° C | 65% | 1016 hPa | 0 mm | - | 818 W/m² | - |
| 1777398654 | 22.22° C | 64% | 1016.2 hPa | 0 mm | - | 581 W/m² | - |
| 1777398350 | 21.67° C | 65% | 1016 hPa | 0 mm | - | 830 W/m² | - |
| 1777398047 | 22.22° C | 63% | 1016 hPa | 0 mm | - | 312 W/m² | - |
| 1777397744 | 22.22° C | 62% | 1016.2 hPa | 0 mm | - | 409 W/m² | - |
| 1777397440 | 22.22° C | 64% | 1016.1 hPa | 0 mm | - | 814 W/m² | - |
| 1777397136 | 21.67° C | 69% | 1016.2 hPa | 0 mm | - | 538 W/m² | - |
| 1777396833 | 21.67° C | 68% | 1016.2 hPa | 0 mm | - | 249 W/m² | - |
| 1777396529 | 21.67° C | 65% | 1016.4 hPa | 0 mm | - | 376 W/m² | - |
| 1777396226 | 21.67° C | 68% | 1016.3 hPa | 0 mm | - | 851 W/m² | - |
| 1777395922 | 21.11° C | 70% | 1016.6 hPa | 0 mm | - | 876 W/m² | - |
| 1777395618 | 20.56° C | 73% | 1016.5 hPa | 0 mm | - | 897 W/m² | - |
| 1777395315 | 21.67° C | 70% | 1016.6 hPa | 0 mm | - | 656 W/m² | - |
* Rain latest hour (hover to see other rain measurements)
** Current wind speed in m/s (hover to see current wind gust speed)